createdAt,value
2023-04-14T00:01:04.552Z,2.67
2023-04-14T00:03:33.589Z,3.45
2023-04-14T00:06:00.754Z,3.10
2023-04-14T00:08:27.476Z,2.92
2023-04-14T00:10:56.609Z,3.13
2023-04-14T00:13:23.207Z,3.40
2023-04-14T00:15:49.947Z,2.55
2023-04-14T00:18:16.662Z,2.95
2023-04-14T00:20:43.608Z,3.45
2023-04-14T00:23:12.508Z,2.78
2023-04-14T00:25:41.608Z,2.65
2023-04-14T00:28:08.249Z,3.22
2023-04-14T00:30:34.927Z,2.65
2023-04-14T00:33:03.720Z,2.47
2023-04-14T00:35:31.942Z,2.65
2023-04-14T00:37:58.584Z,2.80
2023-04-14T00:40:25.467Z,2.50
2023-04-14T00:42:54.606Z,2.50
2023-04-14T00:45:21.347Z,4.18
2023-04-14T00:47:50.674Z,2.33
2023-04-14T00:50:19.097Z,2.47
2023-04-14T00:52:48.008Z,3.60
2023-04-14T00:55:16.481Z,2.50
2023-04-14T00:57:43.385Z,2.80
2023-04-14T01:00:11.723Z,2.60
2023-04-14T01:02:38.854Z,2.95
2023-04-14T01:05:08.064Z,2.40
2023-04-14T01:07:37.334Z,3.58
2023-04-14T01:10:07.163Z,2.53
2023-04-14T01:12:57.926Z,3.45
2023-04-14T01:15:57.501Z,2.85
2023-04-14T01:18:59.294Z,2.55
2023-04-14T01:21:38.344Z,2.35
2023-04-14T01:24:07.927Z,2.75
2023-04-14T01:26:34.915Z,3.38
2023-04-14T01:29:31.193Z,2.97
2023-04-14T01:32:05.958Z,2.28
2023-04-14T01:34:46.151Z,2.70
2023-04-14T01:37:18.964Z,2.65
2023-04-14T01:39:52.860Z,3.10
2023-04-14T01:42:24.891Z,2.95
2023-04-14T01:44:59.377Z,3.00
2023-04-14T01:47:28.980Z,2.63
2023-04-14T01:49:59.237Z,2.78
2023-04-14T01:52:27.282Z,3.08
2023-04-14T01:54:55.711Z,3.10
2023-04-14T01:57:25.238Z,3.40
2023-04-14T01:59:56.729Z,3.85
2023-04-14T02:02:26.233Z,5.85
2023-04-14T02:04:57.428Z,4.80
2023-04-14T02:07:25.344Z,4.30
2023-04-14T02:09:53.482Z,3.55
2023-04-14T02:12:23.195Z,3.38
2023-04-14T02:14:51.588Z,2.95
2023-04-14T02:17:20.816Z,2.47
2023-04-14T02:19:50.911Z,2.95
2023-04-14T02:22:17.614Z,3.50
2023-04-14T02:24:46.426Z,3.20
2023-04-14T02:27:32.006Z,3.00
2023-04-14T02:29:59.822Z,2.92
2023-04-14T02:32:29.891Z,2.63
2023-04-14T02:35:04.517Z,3.47
2023-04-14T02:37:37.628Z,2.75
2023-04-14T02:40:12.790Z,2.38
2023-04-14T02:42:43.162Z,2.50
2023-04-14T02:45:18.625Z,2.67
2023-04-14T02:47:49.423Z,3.33
2023-04-14T02:50:20.868Z,3.35
2023-04-14T02:52:51.377Z,2.30
2023-04-14T02:55:23.009Z,3.25
2023-04-14T02:57:51.820Z,2.70
2023-04-14T03:00:19.368Z,3.30
2023-04-14T03:02:47.294Z,2.78
2023-04-14T03:05:14.545Z,2.97
2023-04-14T03:07:44.891Z,2.80
2023-04-14T03:10:12.379Z,2.40
2023-04-14T03:12:42.124Z,2.72
2023-04-14T03:15:10.461Z,2.70
2023-04-14T03:17:38.183Z,2.58
2023-04-14T03:20:09.837Z,2.33
2023-04-14T03:22:40.814Z,2.50
2023-04-14T03:25:12.441Z,2.10
2023-04-14T03:27:39.972Z,2.22
2023-04-14T03:30:11.652Z,2.92
2023-04-14T03:32:41.745Z,2.33
2023-04-14T03:35:14.329Z,2.50
2023-04-14T03:37:44.358Z,2.30
2023-04-14T03:40:13.593Z,3.20
2023-04-14T03:42:44.662Z,2.58
2023-04-14T03:45:11.976Z,2.20
2023-04-14T03:47:38.892Z,2.20
2023-04-14T03:50:10.213Z,2.25
2023-04-14T03:52:42.265Z,2.47
2023-04-14T03:55:12.442Z,2.40
2023-04-14T03:57:40.727Z,2.38
2023-04-14T04:00:11.700Z,2.10
2023-04-14T04:02:44.899Z,2.28
2023-04-14T04:05:13.123Z,2.60
2023-04-14T04:07:44.947Z,2.20
2023-04-14T04:10:13.953Z,2.92
2023-04-14T04:12:46.675Z,2.22
2023-04-14T04:15:16.491Z,2.35
2023-04-14T04:17:44.013Z,4.03
2023-04-14T04:20:15.418Z,2.58
2023-04-14T04:22:46.647Z,2.47
2023-04-14T04:25:16.182Z,2.47
2023-04-14T04:27:42.967Z,2.30
2023-04-14T04:30:10.559Z,2.28
2023-04-14T04:32:40.202Z,2.20
2023-04-14T04:35:08.078Z,2.60
2023-04-14T04:37:35.413Z,2.47
2023-04-14T04:40:02.243Z,2.75
2023-04-14T04:42:28.857Z,2.40
2023-04-14T04:44:56.032Z,1.92
2023-04-14T04:47:23.185Z,2.60
2023-04-14T04:49:49.799Z,2.80
2023-04-14T04:52:16.441Z,2.35
2023-04-14T04:54:43.737Z,2.22
2023-04-14T04:57:12.070Z,2.50
2023-04-14T04:59:38.999Z,2.35
2023-04-14T05:02:06.337Z,2.83
2023-04-14T05:04:35.431Z,2.40
2023-04-14T05:07:03.515Z,2.63
2023-04-14T05:09:30.146Z,2.38
2023-04-14T05:11:57.324Z,3.08
2023-04-14T05:14:25.193Z,2.70
2023-04-14T05:16:55.461Z,2.72
2023-04-14T05:19:24.406Z,2.80
2023-04-14T05:21:51.139Z,2.67
2023-04-14T05:24:17.769Z,2.25
2023-04-14T05:27:01.746Z,4.30
2023-04-14T05:29:33.532Z,2.60
2023-04-14T05:32:00.524Z,2.47
2023-04-14T05:34:27.233Z,3.50
2023-04-14T05:36:53.859Z,3.08
2023-04-14T05:39:22.880Z,3.22
2023-04-14T05:41:49.713Z,2.58
2023-04-14T05:44:16.537Z,2.55
2023-04-14T05:46:46.464Z,2.65
2023-04-14T05:49:13.240Z,2.28
2023-04-14T05:51:39.865Z,2.55
2023-04-14T05:54:06.763Z,2.25
2023-04-14T05:56:33.481Z,3.50
2023-04-14T05:59:00.484Z,2.53
2023-04-14T06:01:27.220Z,2.60
2023-04-14T06:03:56.610Z,3.15
2023-04-14T06:06:23.518Z,2.50
2023-04-14T06:08:52.462Z,3.50
2023-04-14T06:11:21.316Z,2.92
2023-04-14T06:13:48.023Z,2.00
2023-04-14T06:16:14.690Z,2.60
2023-04-14T06:18:44.063Z,2.88
2023-04-14T06:21:11.684Z,2.08
2023-04-14T06:23:40.961Z,2.17
2023-04-14T06:26:07.748Z,1.60
2023-04-14T06:28:37.019Z,1.88
2023-04-14T06:31:04.114Z,1.55
2023-04-14T06:33:33.272Z,1.88
2023-04-14T06:36:00.253Z,2.40
2023-04-14T06:38:27.040Z,1.58
2023-04-14T06:40:53.670Z,2.40
2023-04-14T06:43:20.441Z,2.00
2023-04-14T06:45:47.158Z,1.80
2023-04-14T06:48:14.356Z,1.88
2023-04-14T06:50:51.636Z,1.63
2023-04-14T06:53:18.307Z,1.95
2023-04-14T06:55:45.006Z,1.85
2023-04-14T06:58:11.692Z,1.90
2023-04-14T07:00:41.056Z,2.03
2023-04-14T07:03:07.867Z,2.20
2023-04-14T07:05:34.591Z,2.15
2023-04-14T07:08:01.481Z,2.20
2023-04-14T07:10:28.173Z,1.88
2023-04-14T07:12:59.602Z,1.88
2023-04-14T07:15:26.644Z,1.90
2023-04-14T07:17:58.646Z,1.90
2023-04-14T07:20:29.181Z,2.05
2023-04-14T07:22:56.146Z,2.05
2023-04-14T07:25:23.296Z,1.92
2023-04-14T07:28:02.650Z,1.80
2023-04-14T07:30:30.156Z,2.10
2023-04-14T07:32:59.445Z,1.83
2023-04-14T07:35:28.868Z,2.30
2023-04-14T07:37:56.004Z,2.40
2023-04-14T07:40:22.647Z,1.95
2023-04-14T07:42:52.017Z,2.40
2023-04-14T07:45:18.976Z,1.70
2023-04-14T07:47:48.271Z,2.00
2023-04-14T07:50:15.654Z,1.90
2023-04-14T07:52:43.319Z,1.80
2023-04-14T07:55:10.109Z,2.15
2023-04-14T07:57:36.766Z,1.80
2023-04-14T08:00:04.237Z,1.85
2023-04-14T08:02:31.794Z,1.75
2023-04-14T08:04:58.624Z,1.77
2023-04-14T08:07:28.525Z,1.88
2023-04-14T08:09:55.257Z,1.90
2023-04-14T08:12:25.091Z,1.88
2023-04-14T08:14:57.039Z,2.00
2023-04-14T08:17:24.327Z,2.13
2023-04-14T08:19:51.113Z,2.33
2023-04-14T08:22:18.440Z,1.85
2023-04-14T08:24:48.249Z,2.10
2023-04-14T08:27:14.948Z,2.90
2023-04-14T08:29:41.712Z,1.73
2023-04-14T08:32:13.222Z,2.03
2023-04-14T08:34:40.062Z,2.05
2023-04-14T08:37:27.050Z,1.73
2023-04-14T08:39:56.317Z,1.77
2023-04-14T08:42:23.125Z,3.17
2023-04-14T08:44:51.952Z,1.98
2023-04-14T08:47:22.852Z,2.08
2023-04-14T08:49:56.721Z,2.30
2023-04-14T08:54:51.368Z,1.90
2023-04-14T08:57:22.147Z,2.15
2023-04-14T08:59:49.185Z,1.98
2023-04-14T09:02:18.030Z,2.00
2023-04-14T09:04:45.968Z,2.28
2023-04-14T09:07:15.484Z,2.28
2023-04-14T09:09:45.296Z,1.60
2023-04-14T09:12:16.756Z,1.65
2023-04-14T09:14:46.451Z,2.13
2023-04-14T09:17:13.419Z,1.52
2023-04-14T09:20:35.348Z,1.83
2023-04-14T09:22:27.879Z,1.75
2023-04-14T09:24:57.254Z,1.60
2023-04-14T09:27:23.920Z,1.77
2023-04-14T09:29:56.245Z,2.00
2023-04-14T09:32:25.123Z,1.33
2023-04-14T09:34:58.438Z,1.73
2023-04-14T09:37:26.079Z,1.70
2023-04-14T09:39:55.958Z,1.70
2023-04-14T09:42:38.924Z,1.88
2023-04-14T09:45:06.270Z,1.60
2023-04-14T09:47:33.019Z,2.50
2023-04-14T09:50:03.167Z,2.00
2023-04-14T09:52:39.544Z,2.22
2023-04-14T09:55:09.536Z,1.92
2023-04-14T09:57:37.335Z,2.10
2023-04-14T10:00:24.509Z,1.75
2023-04-14T10:02:56.408Z,1.60
2023-04-14T10:05:27.722Z,1.75
2023-04-14T10:07:55.352Z,1.90
2023-04-14T10:10:24.940Z,1.35
2023-04-14T10:12:55.441Z,2.40
2023-04-14T10:15:24.588Z,1.30
2023-04-14T10:17:53.902Z,1.40
2023-04-14T10:20:21.025Z,1.35
2023-04-14T10:22:50.690Z,1.25
2023-04-14T10:25:22.709Z,1.80
2023-04-14T10:27:50.208Z,1.92
2023-04-14T10:30:16.958Z,1.63
2023-04-14T10:32:48.040Z,1.60
2023-04-14T10:35:18.431Z,2.35
2023-04-14T10:37:52.204Z,5.03
2023-04-14T10:42:56.386Z,6.93
2023-04-14T10:45:23.451Z,1.73
2023-04-14T10:47:51.119Z,1.83
2023-04-14T10:50:22.076Z,1.60
2023-04-14T10:53:00.932Z,1.45
2023-04-14T10:55:28.268Z,1.85
2023-04-14T10:58:08.717Z,1.40
2023-04-14T11:00:41.696Z,1.65
2023-04-14T11:03:11.140Z,1.63
2023-04-14T11:06:04.357Z,1.70
2023-04-14T11:08:35.864Z,1.65
2023-04-14T11:11:04.760Z,1.65
2023-04-14T11:13:33.180Z,1.42
2023-04-14T11:16:04.483Z,1.70
2023-04-14T11:18:38.000Z,1.58
2023-04-14T11:21:15.583Z,1.50
2023-04-14T11:23:45.059Z,1.50
2023-04-14T11:26:13.984Z,1.55
2023-04-14T11:28:42.789Z,1.40
2023-04-14T11:31:12.001Z,1.50
2023-04-14T11:33:41.672Z,1.45
2023-04-14T11:36:13.388Z,1.33
2023-04-14T11:38:40.706Z,1.40
2023-04-14T11:41:10.692Z,1.55
2023-04-14T11:43:46.309Z,1.75
2023-04-14T11:46:15.506Z,1.70
2023-04-14T11:48:42.276Z,1.40
2023-04-14T11:51:11.534Z,1.60
2023-04-14T11:53:40.518Z,1.63
2023-04-14T11:56:08.734Z,1.75
2023-04-14T11:58:38.113Z,1.63
2023-04-14T12:01:04.973Z,1.60
2023-04-14T12:03:33.166Z,1.17
2023-04-14T12:06:03.356Z,1.40
2023-04-14T12:08:31.348Z,1.30
2023-04-14T12:10:58.697Z,1.20
2023-04-14T12:13:27.159Z,1.45
2023-04-14T12:15:54.450Z,1.80
2023-04-14T12:18:24.110Z,1.48
2023-04-14T12:20:56.302Z,1.50
2023-04-14T12:23:23.821Z,1.30
2023-04-14T12:25:51.478Z,1.75
2023-04-14T12:28:29.140Z,1.67
2023-04-14T12:31:02.529Z,1.45
2023-04-14T12:33:30.695Z,1.70
2023-04-14T12:36:04.905Z,1.58
2023-04-14T12:38:31.751Z,1.58
2023-04-14T12:41:00.935Z,1.67
2023-04-14T12:43:34.677Z,1.10
2023-04-14T12:46:06.257Z,1.42
2023-04-14T12:48:44.661Z,1.50
2023-04-14T12:51:17.319Z,1.42
2023-04-14T12:53:45.395Z,0.90
2023-04-14T12:56:24.986Z,1.10
2023-04-14T12:58:54.413Z,1.48
2023-04-14T13:01:24.655Z,1.10
2023-04-14T13:03:57.820Z,1.20
2023-04-14T13:06:25.268Z,1.30
2023-04-14T13:08:53.314Z,1.25
2023-04-14T13:11:22.204Z,1.38
2023-04-14T13:13:49.615Z,1.70
2023-04-14T13:16:17.773Z,1.48
2023-04-14T13:18:46.856Z,1.20
2023-04-14T13:21:13.976Z,1.48
2023-04-14T13:23:41.175Z,1.80
2023-04-14T13:26:07.958Z,1.30
2023-04-14T13:28:34.704Z,1.23
2023-04-14T13:31:01.575Z,0.95
2023-04-14T13:33:28.304Z,1.20
2023-04-14T13:35:57.862Z,1.50
2023-04-14T13:38:24.577Z,1.20
2023-04-14T13:40:51.356Z,2.00
2023-04-14T13:43:18.916Z,1.58
2023-04-14T13:45:46.731Z,1.48
2023-04-14T13:48:13.824Z,1.00
2023-04-14T13:50:40.736Z,1.20
2023-04-14T13:53:07.524Z,1.52
2023-04-14T13:55:35.881Z,1.35
2023-04-14T13:58:02.604Z,1.50
2023-04-14T14:00:29.529Z,1.67
2023-04-14T14:02:58.489Z,1.23
2023-04-14T14:05:25.721Z,1.23
2023-04-14T14:07:52.553Z,1.48
2023-04-14T14:10:19.369Z,1.30
2023-04-14T14:12:46.184Z,1.80
2023-04-14T14:15:12.971Z,1.27
2023-04-14T14:17:40.893Z,1.27
2023-04-14T14:20:11.253Z,1.30
2023-04-14T14:22:38.366Z,1.38
2023-04-14T14:25:18.400Z,1.10
2023-04-14T14:27:46.658Z,1.38
2023-04-14T14:30:16.282Z,1.15
2023-04-14T14:32:45.465Z,0.93
2023-04-14T14:35:12.139Z,1.13
2023-04-14T14:37:38.906Z,1.55
2023-04-14T14:40:08.335Z,1.20
2023-04-14T14:42:37.561Z,1.25
2023-04-14T14:45:05.071Z,1.45
2023-04-14T14:47:33.617Z,1.48
2023-04-14T14:50:03.489Z,1.30
2023-04-14T14:52:33.635Z,1.42
2023-04-14T14:55:00.719Z,1.20
2023-04-14T14:57:27.493Z,1.30
2023-04-14T14:59:54.359Z,1.25
2023-04-14T15:02:22.676Z,1.23
2023-04-14T15:04:52.550Z,1.48
2023-04-14T15:07:19.426Z,1.30
2023-04-14T15:09:47.224Z,1.45
2023-04-14T15:12:16.346Z,1.10
2023-04-14T15:14:45.417Z,0.98
2023-04-14T15:17:12.148Z,1.40
2023-04-14T15:19:39.173Z,1.02
2023-04-14T15:22:06.017Z,1.10
2023-04-14T15:24:32.788Z,1.20
2023-04-14T15:26:59.467Z,1.15
2023-04-14T15:29:26.602Z,0.90
2023-04-14T15:31:53.666Z,1.10
2023-04-14T15:34:21.390Z,1.00
2023-04-14T15:36:48.277Z,1.17
2023-04-14T15:39:15.045Z,1.02
2023-04-14T15:41:42.228Z,1.20
2023-04-14T15:44:09.012Z,1.30
2023-04-14T15:46:38.055Z,1.08
2023-04-14T15:49:04.799Z,1.00
2023-04-14T15:51:31.751Z,1.35
2023-04-14T15:53:58.561Z,1.10
2023-04-14T15:56:25.944Z,1.20
2023-04-14T15:58:52.694Z,1.10
2023-04-14T16:01:19.468Z,1.20
2023-04-14T16:03:46.364Z,0.90
2023-04-14T16:06:13.060Z,1.45
2023-04-14T16:08:39.831Z,1.40
2023-04-14T16:11:07.853Z,1.02
2023-04-14T16:13:34.754Z,1.25
2023-04-14T16:16:01.576Z,1.30
2023-04-14T16:18:31.157Z,1.33
2023-04-14T16:20:57.854Z,12.15
2023-04-14T16:23:24.591Z,1.25
2023-04-14T16:25:51.592Z,1.13
2023-04-14T16:28:18.664Z,1.20
2023-04-14T16:30:48.178Z,1.50
2023-04-14T16:33:15.864Z,1.58
2023-04-14T16:35:42.615Z,1.17
2023-04-14T16:38:11.669Z,1.35
2023-04-14T16:40:39.016Z,1.50
2023-04-14T16:43:05.817Z,1.35
2023-04-14T16:45:32.816Z,1.50
2023-04-14T16:48:02.342Z,1.10
2023-04-14T16:50:29.421Z,1.20
2023-04-14T16:52:56.513Z,1.45
2023-04-14T16:55:25.830Z,1.10
2023-04-14T16:57:52.619Z,1.20
2023-04-14T17:00:19.620Z,1.42
2023-04-14T17:02:46.667Z,1.80
2023-04-14T17:05:15.902Z,1.90
2023-04-14T17:07:43.064Z,1.10
2023-04-14T17:10:10.547Z,1.00
2023-04-14T17:12:37.360Z,1.20
2023-04-14T17:15:04.693Z,1.20
2023-04-14T17:17:31.937Z,1.27
2023-04-14T17:19:59.346Z,1.20
2023-04-14T17:22:27.641Z,1.10
2023-04-14T17:24:55.104Z,1.00
2023-04-14T17:27:22.494Z,1.15
2023-04-14T17:29:52.003Z,1.58
2023-04-14T17:32:19.559Z,1.50
2023-04-14T17:34:49.906Z,1.10
2023-04-14T17:37:16.673Z,1.33
2023-04-14T17:39:44.010Z,1.15
2023-04-14T17:42:15.702Z,1.15
2023-04-14T17:44:42.415Z,0.98
2023-04-14T17:47:15.760Z,0.88
2023-04-14T17:49:43.872Z,1.15
2023-04-14T17:52:11.850Z,1.35
2023-04-14T17:54:38.868Z,1.30
2023-04-14T17:57:11.355Z,1.20
2023-04-14T17:59:39.783Z,1.00
2023-04-14T18:02:06.619Z,1.20
2023-04-14T18:04:33.539Z,1.40
2023-04-14T18:07:00.330Z,1.30
2023-04-14T18:09:27.824Z,1.40
2023-04-14T18:11:54.595Z,1.27
2023-04-14T18:14:24.056Z,1.27
2023-04-14T18:16:50.840Z,1.45
2023-04-14T18:19:19.714Z,1.50
2023-04-14T18:21:47.010Z,2.50
2023-04-14T18:26:48.105Z,2.90
2023-04-14T18:29:14.844Z,11.98
2023-04-14T18:31:43.778Z,20.27
2023-04-14T18:34:14.076Z,11.57
2023-04-14T18:36:41.057Z,9.70
2023-04-14T18:39:08.268Z,5.80
2023-04-14T18:41:35.414Z,5.93
2023-04-14T18:44:04.575Z,3.90
2023-04-14T18:46:31.805Z,3.97
2023-04-14T18:48:58.817Z,3.30
2023-04-14T18:51:26.005Z,3.33
2023-04-14T18:53:53.290Z,3.38
2023-04-14T18:56:22.388Z,2.78
2023-04-14T18:58:50.354Z,3.00
2023-04-14T19:01:19.854Z,2.85
2023-04-14T19:03:49.285Z,2.80
2023-04-14T19:06:18.547Z,2.50
2023-04-14T19:08:45.487Z,3.30
2023-04-14T19:11:12.359Z,3.80
2023-04-14T19:13:39.336Z,3.55
2023-04-14T19:16:12.490Z,2.72
2023-04-14T19:18:44.578Z,2.75
2023-04-14T19:21:11.365Z,2.60
2023-04-14T19:23:41.013Z,2.45
2023-04-14T19:26:08.321Z,2.75
2023-04-14T19:28:40.253Z,3.00
2023-04-14T19:31:07.113Z,3.53
2023-04-14T19:33:34.656Z,3.22
2023-04-14T19:36:01.505Z,3.42
2023-04-14T19:38:28.642Z,3.85
2023-04-14T19:40:58.957Z,3.60
2023-04-14T19:43:25.768Z,4.13
2023-04-14T19:45:53.358Z,4.40
2023-04-14T19:48:23.991Z,4.75
2023-04-14T19:50:55.003Z,4.38
2023-04-14T19:53:23.628Z,3.78
2023-04-14T19:55:51.386Z,4.65
2023-04-14T19:58:21.848Z,4.00
2023-04-14T20:00:51.417Z,3.72
2023-04-14T20:03:21.127Z,3.03
2023-04-14T20:05:59.504Z,2.85
2023-04-14T20:08:32.160Z,3.00
2023-04-14T20:10:59.332Z,2.42
2023-04-14T20:13:30.414Z,2.40
2023-04-14T20:15:57.137Z,2.47
2023-04-14T20:18:24.058Z,2.60
2023-04-14T20:20:51.364Z,2.30
2023-04-14T20:23:20.655Z,2.40
2023-04-14T20:25:48.663Z,2.50
2023-04-14T20:28:19.484Z,2.10
2023-04-14T20:30:50.965Z,1.60
2023-04-14T20:33:21.375Z,1.80
2023-04-14T20:35:49.154Z,1.73
2023-04-14T20:38:18.187Z,1.90
2023-04-14T20:40:47.487Z,1.98
2023-04-14T20:43:16.901Z,1.67
2023-04-14T20:45:43.973Z,1.95
2023-04-14T20:48:10.702Z,1.95
2023-04-14T20:50:37.525Z,2.08
2023-04-14T20:53:04.374Z,1.63
2023-04-14T20:55:31.038Z,1.80
2023-04-14T20:57:58.090Z,1.63
2023-04-14T21:00:27.357Z,1.98
2023-04-14T21:02:54.475Z,1.70
2023-04-14T21:05:21.962Z,1.92
2023-04-14T21:07:51.086Z,2.00
2023-04-14T21:10:17.711Z,2.17
2023-04-14T21:15:29.603Z,2.10
2023-04-14T21:15:53.988Z,1.60
2023-04-14T21:18:18.628Z,2.40
2023-04-14T21:20:45.553Z,1.90
2023-04-14T21:23:12.306Z,2.03
2023-04-14T21:25:39.100Z,2.60
2023-04-14T21:28:06.080Z,3.15
2023-04-14T21:30:33.954Z,2.10
2023-04-14T21:33:00.653Z,2.50
2023-04-14T21:35:27.426Z,2.70
2023-04-14T21:37:54.064Z,2.63
2023-04-14T21:40:21.438Z,2.90
2023-04-14T21:42:48.144Z,2.25
2023-04-14T21:45:15.173Z,2.70
2023-04-14T21:47:44.055Z,2.80
2023-04-14T21:50:10.784Z,2.55
2023-04-14T21:52:39.907Z,2.75
2023-04-14T21:55:07.416Z,2.25
2023-04-14T21:57:45.651Z,3.03
2023-04-14T22:00:17.587Z,2.47
2023-04-14T22:02:45.226Z,2.80
2023-04-14T22:05:12.464Z,2.30
2023-04-14T22:07:41.538Z,2.33
2023-04-14T22:10:08.642Z,2.17
2023-04-14T22:12:36.052Z,2.20
2023-04-14T22:15:05.821Z,2.25
2023-04-14T22:17:32.891Z,2.42
2023-04-14T22:20:01.787Z,1.92
2023-04-14T22:22:31.053Z,2.17
2023-04-14T22:24:57.742Z,3.05
2023-04-14T22:27:26.631Z,2.40
2023-04-14T22:29:53.949Z,2.00
2023-04-14T22:32:20.717Z,2.20
2023-04-14T22:34:47.389Z,2.17
2023-04-14T22:37:14.626Z,2.35
2023-04-14T22:39:41.778Z,2.28
2023-04-14T22:42:11.014Z,2.70
2023-04-14T22:44:38.218Z,2.38
2023-04-14T22:47:04.946Z,2.85
2023-04-14T22:49:33.777Z,2.03
2023-04-14T22:52:02.920Z,2.30
2023-04-14T22:54:29.560Z,2.17
2023-04-14T22:56:58.760Z,2.10
2023-04-14T22:59:27.887Z,2.50
2023-04-14T23:01:54.641Z,2.40
2023-04-14T23:04:26.665Z,2.83
2023-04-14T23:06:53.469Z,2.30
2023-04-14T23:09:20.982Z,2.47
2023-04-14T23:11:47.652Z,2.70
2023-04-14T23:14:14.305Z,2.30
2023-04-14T23:16:43.815Z,2.40
2023-04-14T23:19:10.576Z,2.20
2023-04-14T23:21:37.298Z,2.45
2023-04-14T23:24:04.360Z,2.65
2023-04-14T23:26:31.482Z,2.65
2023-04-14T23:28:58.191Z,3.35
2023-04-14T23:31:24.926Z,2.67
2023-04-14T23:33:52.816Z,3.05
2023-04-14T23:36:20.062Z,3.55
2023-04-14T23:38:49.413Z,3.08
2023-04-14T23:41:16.764Z,2.58
2023-04-14T23:43:43.510Z,2.90
2023-04-14T23:46:12.428Z,3.15
2023-04-14T23:48:39.133Z,2.33
2023-04-14T23:51:20.022Z,2.30
2023-04-14T23:53:51.359Z,2.60
2023-04-14T23:56:18.065Z,2.08
2023-04-14T23:58:47.034Z,2.03
